createdAt,value
2019-05-02T00:02:28.886Z,9.60
2019-05-02T00:05:18.180Z,12.60
2019-05-02T00:08:04.179Z,11.97
2019-05-02T00:10:51.030Z,10.00
2019-05-02T00:13:37.583Z,9.60
2019-05-02T00:16:23.819Z,11.77
2019-05-02T00:19:14.128Z,10.67
2019-05-02T00:21:57.965Z,10.90
2019-05-02T00:24:44.059Z,10.13
2019-05-02T00:27:32.830Z,10.57
2019-05-02T00:30:18.449Z,9.80
2019-05-02T00:33:04.692Z,12.00
2019-05-02T00:35:51.027Z,11.57
2019-05-02T00:38:38.424Z,9.67
2019-05-02T00:41:25.283Z,12.68
2019-05-02T00:44:12.349Z,11.07
2019-05-02T00:47:06.257Z,12.93
2019-05-02T00:49:53.940Z,9.83
2019-05-02T00:52:40.329Z,10.83
2019-05-02T00:55:28.781Z,8.87
2019-05-02T00:58:14.524Z,10.60
2019-05-02T01:01:38.600Z,11.53
2019-05-02T01:04:29.004Z,11.60
2019-05-02T01:07:15.053Z,11.80
2019-05-02T01:10:01.223Z,10.00
2019-05-02T01:12:47.173Z,10.93
2019-05-02T01:15:33.391Z,10.53
2019-05-02T01:18:22.391Z,13.07
2019-05-02T01:21:08.639Z,9.57
2019-05-02T01:23:59.022Z,10.20
2019-05-02T01:26:51.324Z,10.47
2019-05-02T01:30:01.443Z,13.73
2019-05-02T01:33:01.434Z,12.57
2019-05-02T01:35:53.648Z,10.27
2019-05-02T01:38:45.984Z,10.47
2019-05-02T01:41:31.832Z,11.13
2019-05-02T01:44:17.836Z,12.67
2019-05-02T01:47:03.576Z,14.77
2019-05-02T01:49:52.005Z,9.30
2019-05-02T01:52:37.528Z,10.40
2019-05-02T01:55:23.820Z,10.27
2019-05-02T01:58:10.211Z,7.87
2019-05-02T02:00:56.060Z,11.30
2019-05-02T02:03:45.718Z,8.87
2019-05-02T02:06:30.209Z,10.67
2019-05-02T02:09:16.296Z,9.73
2019-05-02T02:12:05.049Z,10.43
2019-05-02T02:14:53.534Z,9.67
2019-05-02T02:17:37.884Z,9.83
2019-05-02T02:20:25.403Z,10.93
2019-05-02T02:23:34.056Z,8.43
2019-05-02T02:26:20.503Z,11.43
2019-05-02T02:29:07.896Z,10.93
2019-05-02T02:31:54.245Z,9.67
2019-05-02T02:34:40.161Z,10.50
2019-05-02T02:37:26.161Z,8.60
2019-05-02T02:40:11.976Z,11.30
2019-05-02T02:42:58.096Z,9.57
2019-05-02T02:46:09.900Z,11.57
2019-05-02T02:48:56.085Z,9.60
2019-05-02T02:51:41.983Z,12.07
2019-05-02T02:54:27.732Z,10.20
2019-05-02T02:57:25.835Z,9.63
2019-05-02T03:00:08.164Z,7.93
2019-05-02T03:02:50.105Z,10.33
2019-05-02T03:05:36.236Z,9.83
2019-05-02T03:08:22.740Z,7.70
2019-05-02T03:11:10.914Z,8.53
2019-05-02T03:14:09.349Z,8.67
2019-05-02T03:16:54.683Z,7.83
2019-05-02T03:19:40.449Z,8.90
2019-05-02T03:22:26.494Z,7.73
2019-05-02T03:25:18.443Z,9.83
2019-05-02T03:28:00.515Z,8.47
2019-05-02T03:30:47.006Z,9.63
2019-05-02T03:33:51.474Z,6.83
2019-05-02T03:36:30.691Z,9.70
2019-05-02T03:39:14.691Z,7.17
2019-05-02T03:42:02.833Z,8.80
2019-05-02T03:44:54.610Z,7.27
2019-05-02T03:47:36.905Z,9.17
2019-05-02T03:50:31.161Z,8.40
2019-05-02T03:53:08.719Z,9.13
2019-05-02T03:55:55.352Z,9.27
2019-05-02T03:58:41.484Z,8.87
2019-05-02T04:01:34.723Z,9.57
2019-05-02T04:04:20.472Z,9.43
2019-05-02T04:07:04.765Z,7.00
2019-05-02T04:09:51.184Z,9.17
2019-05-02T04:12:37.506Z,7.87
2019-05-02T04:15:28.786Z,8.83
2019-05-02T04:18:15.316Z,8.43
2019-05-02T04:20:59.646Z,7.23
2019-05-02T04:23:47.051Z,8.73
2019-05-02T04:26:32.836Z,6.80
2019-05-02T04:29:24.346Z,7.93
2019-05-02T04:32:12.286Z,8.47
2019-05-02T04:34:57.456Z,7.40
2019-05-02T04:37:43.820Z,9.03
2019-05-02T04:40:34.908Z,6.83
2019-05-02T04:43:18.372Z,6.30
2019-05-02T04:46:09.258Z,10.30
2019-05-02T04:48:53.232Z,9.10
2019-05-02T04:51:39.536Z,7.20
2019-05-02T04:54:31.519Z,7.97
2019-05-02T04:57:13.721Z,6.63
2019-05-02T05:00:06.259Z,8.00
2019-05-02T05:02:48.415Z,6.20
2019-05-02T05:05:37.766Z,7.37
2019-05-02T05:08:26.368Z,6.53
2019-05-02T05:11:13.950Z,8.20
2019-05-02T05:14:00.310Z,6.00
2019-05-02T05:16:55.468Z,7.00
2019-05-02T05:19:39.763Z,7.50
2019-05-02T05:22:25.664Z,8.13
2019-05-02T05:25:21.237Z,6.77
2019-05-02T05:28:06.342Z,7.20
2019-05-02T05:30:53.152Z,7.87
2019-05-02T05:33:38.979Z,8.23
2019-05-02T05:36:32.516Z,8.73
2019-05-02T05:39:13.380Z,7.57
2019-05-02T05:41:59.742Z,6.30
2019-05-02T05:44:48.231Z,7.47
2019-05-02T05:47:34.012Z,6.23
2019-05-02T05:50:20.547Z,7.00
2019-05-02T05:53:07.937Z,5.67
2019-05-02T05:55:58.993Z,7.30
2019-05-02T05:58:48.157Z,5.70
2019-05-02T06:01:34.379Z,5.30
2019-05-02T06:04:19.381Z,5.13
2019-05-02T06:07:07.215Z,5.90
2019-05-02T06:10:02.195Z,6.07
2019-05-02T06:12:45.833Z,5.47
2019-05-02T06:15:33.839Z,5.23
2019-05-02T06:18:19.888Z,5.40
2019-05-02T06:21:08.705Z,5.83
2019-05-02T06:23:53.772Z,5.13
2019-05-02T06:26:40.031Z,5.00
2019-05-02T06:29:26.128Z,4.40
2019-05-02T06:32:14.140Z,4.90
2019-05-02T06:35:00.195Z,4.00
2019-05-02T06:37:50.100Z,4.77
2019-05-02T06:40:33.739Z,4.40
2019-05-02T06:43:19.567Z,5.47
2019-05-02T06:46:16.078Z,4.27
2019-05-02T06:48:53.788Z,3.20
2019-05-02T06:51:40.044Z,4.27
2019-05-02T06:54:26.387Z,4.30
2019-05-02T06:57:12.634Z,4.23
2019-05-02T06:59:58.846Z,3.03
2019-05-02T07:02:44.767Z,4.10
2019-05-02T07:05:31.004Z,2.47
2019-05-02T07:08:16.891Z,2.57
2019-05-02T07:11:03.253Z,2.87
2019-05-02T07:13:49.429Z,2.67
2019-05-02T07:16:56.583Z,2.50
2019-05-02T07:19:45.542Z,3.40
2019-05-02T07:22:33.225Z,2.23
2019-05-02T07:25:19.798Z,2.50
2019-05-02T07:28:09.407Z,2.47
2019-05-02T07:30:54.835Z,2.60
2019-05-02T07:33:41.101Z,3.23
2019-05-02T07:36:31.282Z,3.87
2019-05-02T07:39:15.619Z,2.00
2019-05-02T07:42:05.786Z,1.67
2019-05-02T07:44:49.263Z,2.13
2019-05-02T07:47:40.175Z,1.17
2019-05-02T07:50:22.876Z,0.80
2019-05-02T07:53:11.439Z,0.70
2019-05-02T07:55:57.035Z,0.60
2019-05-02T07:58:46.848Z,0.73
2019-05-02T08:01:30.656Z,0.40
2019-05-02T08:04:16.919Z,0.77
2019-05-02T08:07:03.507Z,0.40
2019-05-02T08:09:49.647Z,0.50
2019-05-02T08:12:35.983Z,0.97
2019-05-02T08:15:24.491Z,0.30
2019-05-02T08:18:10.182Z,0.40
2019-05-02T08:20:57.378Z,0.50
2019-05-02T08:23:43.913Z,0.57
2019-05-02T08:26:47.856Z,0.50
2019-05-02T08:29:34.739Z,0.60
2019-05-02T08:32:20.536Z,0.60
2019-05-02T08:35:06.897Z,0.50
2019-05-02T08:37:55.825Z,0.60
2019-05-02T08:40:42.417Z,1.77
2019-05-02T08:43:28.797Z,0.50
2019-05-02T08:46:15.993Z,0.50
2019-05-02T08:49:02.101Z,0.83
2019-05-02T08:51:48.445Z,1.07
2019-05-02T08:54:34.643Z,1.10
2019-05-02T08:57:23.579Z,0.53
2019-05-02T09:00:09.239Z,0.37
2019-05-02T09:02:57.168Z,0.60
2019-05-02T09:05:45.993Z,0.30
2019-05-02T09:08:31.007Z,0.33
2019-05-02T09:11:16.915Z,0.37
2019-05-02T09:14:02.732Z,0.30
2019-05-02T09:16:48.537Z,0.43
2019-05-02T09:19:35.028Z,0.30
2019-05-02T09:22:22.190Z,0.57
2019-05-02T09:25:08.659Z,0.33
2019-05-02T09:27:54.803Z,0.30
2019-05-02T09:30:41.917Z,0.30
2019-05-02T09:33:28.311Z,0.40
2019-05-02T09:36:14.336Z,0.73
2019-05-02T09:39:02.524Z,0.80
2019-05-02T09:41:48.253Z,5.70
2019-05-02T09:44:33.968Z,0.40
2019-05-02T09:47:27.220Z,0.40
2019-05-02T09:50:20.558Z,0.50
2019-05-02T09:53:04.829Z,0.40
2019-05-02T09:55:55.735Z,1.07
2019-05-02T09:58:39.026Z,0.40
2019-05-02T10:01:52.571Z,0.50
2019-05-02T10:04:41.554Z,0.50
2019-05-02T10:07:26.615Z,0.40
2019-05-02T10:10:13.744Z,0.60
2019-05-02T10:12:59.725Z,0.83
2019-05-02T10:15:46.466Z,1.13
2019-05-02T10:18:33.100Z,1.47
2019-05-02T10:21:19.452Z,2.90
2019-05-02T10:24:05.175Z,1.47
2019-05-02T10:26:55.144Z,0.60
2019-05-02T10:29:39.240Z,0.83
2019-05-02T10:32:25.516Z,0.60
2019-05-02T10:35:14.605Z,1.23
2019-05-02T10:38:02.498Z,0.70
2019-05-02T10:40:53.459Z,0.90
2019-05-02T10:43:36.565Z,0.60
2019-05-02T10:46:37.670Z,1.03
2019-05-02T10:49:27.769Z,1.37
2019-05-02T10:52:13.889Z,0.30
2019-05-02T10:55:02.493Z,0.73
2019-05-02T13:25:32.936Z,3.10
2019-05-02T13:28:22.340Z,1.20
2019-05-02T13:31:18.415Z,1.00
2019-05-02T13:34:22.089Z,0.90
2019-05-02T13:37:12.212Z,1.00
2019-05-02T13:40:17.627Z,1.60
2019-05-02T13:43:04.732Z,1.43
2019-05-02T13:46:14.039Z,2.10
2019-05-02T13:49:02.031Z,1.73
2019-05-02T13:51:48.123Z,0.90
2019-05-02T13:54:34.741Z,3.47
2019-05-02T13:57:21.821Z,0.80
2019-05-02T14:00:10.004Z,1.83
2019-05-02T14:02:55.788Z,2.70
2019-05-02T14:05:49.156Z,4.27
2019-05-02T14:08:59.259Z,4.20
2019-05-02T14:11:56.380Z,2.83
2019-05-02T14:14:42.731Z,2.10
2019-05-02T14:17:28.956Z,1.73
2019-05-02T14:20:17.340Z,1.00
2019-05-02T14:23:03.220Z,2.40
2019-05-02T14:25:49.522Z,1.10
2019-05-02T14:28:38.824Z,1.40
2019-05-02T14:31:24.773Z,1.07
2019-05-02T14:34:45.918Z,0.80
2019-05-02T14:37:32.256Z,1.13
2019-05-02T14:40:31.926Z,1.07
2019-05-02T14:43:38.209Z,0.50
2019-05-02T14:46:29.054Z,0.40
2019-05-02T14:49:16.702Z,0.40
2019-05-02T14:52:06.977Z,0.67
2019-05-02T14:54:55.504Z,0.57
2019-05-02T14:57:40.178Z,0.43
2019-05-02T15:00:33.390Z,0.40
2019-05-02T15:03:19.051Z,0.40
2019-05-02T15:06:06.978Z,0.40
2019-05-02T15:08:52.662Z,0.50
2019-05-02T15:11:57.223Z,0.40
2019-05-02T15:14:43.314Z,0.70
2019-05-02T15:17:36.247Z,0.80
2019-05-02T15:20:17.561Z,0.70
2019-05-02T15:23:07.136Z,0.60
2019-05-02T15:25:55.924Z,0.63
2019-05-02T15:28:39.643Z,0.80
2019-05-02T15:31:32.408Z,1.00
2019-05-02T15:34:23.647Z,1.30
2019-05-02T15:37:09.928Z,1.00
2019-05-02T15:43:09.235Z,0.80
2019-05-02T15:45:52.862Z,0.60
2019-05-02T15:48:39.056Z,0.70
2019-05-02T15:51:25.413Z,1.27
2019-05-02T15:54:12.500Z,0.83
2019-05-02T15:57:01.192Z,0.80
2019-05-02T15:59:46.413Z,0.77
2019-05-02T16:02:32.828Z,0.67
2019-05-02T16:05:21.615Z,1.13
2019-05-02T16:08:08.829Z,1.20
2019-05-02T16:10:54.819Z,1.10
2019-05-02T16:13:42.409Z,0.60
2019-05-02T16:16:28.363Z,2.13
2019-05-02T16:19:23.079Z,1.27
2019-05-02T16:22:22.615Z,1.17
2019-05-02T16:25:09.236Z,1.07
2019-05-02T16:27:57.476Z,0.77
2019-05-02T16:30:47.621Z,1.13
2019-05-02T16:33:33.375Z,0.93
2019-05-02T16:36:19.054Z,1.07
2019-05-02T16:39:09.911Z,1.53
2019-05-02T16:41:53.527Z,1.13
2019-05-02T16:44:39.321Z,0.77
2019-05-02T16:47:25.651Z,0.73
2019-05-02T16:50:12.359Z,0.70
2019-05-02T16:52:58.408Z,1.20
2019-05-02T16:55:44.213Z,1.13
2019-05-02T16:58:31.941Z,1.10
2019-05-02T17:01:26.626Z,1.20
2019-05-02T17:04:06.803Z,1.27
2019-05-02T17:06:56.865Z,2.20
2019-05-02T17:10:08.625Z,1.83
2019-05-02T17:12:57.659Z,1.90
2019-05-02T17:15:43.113Z,4.30
2019-05-02T17:18:29.442Z,1.47
2019-05-02T17:21:15.635Z,2.40
2019-05-02T17:24:02.618Z,2.90
2019-05-02T17:26:48.545Z,2.47
2019-05-02T17:29:34.472Z,2.77
2019-05-02T17:32:22.389Z,2.40
2019-05-02T17:35:09.805Z,2.27
2019-05-02T17:37:56.373Z,2.07
2019-05-02T17:40:42.346Z,3.00
2019-05-02T17:43:28.479Z,2.47
2019-05-02T17:46:18.339Z,4.90
2019-05-02T17:49:02.526Z,3.30
2019-05-02T17:52:11.301Z,4.60
2019-05-02T17:54:57.391Z,4.27
2019-05-02T17:57:43.015Z,4.60
2019-05-02T18:00:33.378Z,4.27
2019-05-02T18:03:24.063Z,4.60
2019-05-02T18:06:12.075Z,4.77
2019-05-02T18:08:55.506Z,4.73
2019-05-02T18:11:42.383Z,3.13
2019-05-02T18:14:28.553Z,3.30
2019-05-02T18:17:14.492Z,5.17
2019-05-02T18:20:02.275Z,3.07
2019-05-02T18:22:49.056Z,5.67
2019-05-02T18:25:35.760Z,4.30
2019-05-02T18:28:26.131Z,4.50
2019-05-02T18:31:09.851Z,4.40
2019-05-02T18:33:56.134Z,5.80
2019-05-02T18:36:43.643Z,4.97
2019-05-02T18:39:29.760Z,3.90
2019-05-02T18:42:16.586Z,4.50
2019-05-02T18:45:06.075Z,2.80
2019-05-02T18:47:54.014Z,3.77
2019-05-02T18:50:46.392Z,3.50
2019-05-02T18:53:29.058Z,3.17
2019-05-02T18:56:15.190Z,2.50
2019-05-02T18:59:02.606Z,3.13
2019-05-02T19:01:52.764Z,4.30
2019-05-02T19:04:39.823Z,5.47
2019-05-02T19:07:33.185Z,4.57
2019-05-02T19:10:14.635Z,6.00
2019-05-02T19:13:04.473Z,3.63
2019-05-02T19:15:49.060Z,4.13
2019-05-02T19:18:34.873Z,2.57
2019-05-02T19:21:21.736Z,3.10
2019-05-02T19:24:08.128Z,3.63
2019-05-02T19:26:56.349Z,6.73
2019-05-02T19:29:42.496Z,3.40
2019-05-02T19:32:28.719Z,3.67
2019-05-02T19:35:14.787Z,5.57
2019-05-02T19:38:02.540Z,5.37
2019-05-02T19:40:49.281Z,3.47
2019-05-02T19:43:40.271Z,4.23
2019-05-02T19:46:31.022Z,2.17
2019-05-02T19:49:14.268Z,4.87
2019-05-02T19:51:59.693Z,6.63
2019-05-02T19:54:45.508Z,6.00
2019-05-02T19:57:35.526Z,7.27
2019-05-02T20:00:24.474Z,5.57
2019-05-02T20:03:18.895Z,2.97
2019-05-02T20:06:02.262Z,4.50
2019-05-02T20:08:46.192Z,3.17
2019-05-02T20:11:34.265Z,2.70
2019-05-02T20:14:21.806Z,1.97
2019-05-02T20:17:09.532Z,3.00
2019-05-02T20:20:02.709Z,2.90
2019-05-02T20:22:45.945Z,3.13
2019-05-02T20:25:37.567Z,2.17
2019-05-02T20:28:21.315Z,3.10
2019-05-02T20:31:07.623Z,5.30
2019-05-02T20:33:57.217Z,2.20
2019-05-02T20:36:43.466Z,3.10
2019-05-02T20:39:31.666Z,3.60
2019-05-02T20:42:17.622Z,3.10
2019-05-02T20:45:04.336Z,3.07
2019-05-02T20:47:52.426Z,2.23
2019-05-02T20:50:38.782Z,1.97
2019-05-02T20:53:30.986Z,5.67
2019-05-02T20:56:13.483Z,4.33
2019-05-02T20:59:01.889Z,2.30
2019-05-02T21:01:47.909Z,2.40
2019-05-02T21:04:35.192Z,3.10
2019-05-02T21:07:53.326Z,3.57
2019-05-02T21:10:41.732Z,3.37
2019-05-02T21:13:28.423Z,3.50
2019-05-02T21:16:14.683Z,4.10
2019-05-02T21:19:02.203Z,2.10
2019-05-02T21:21:48.680Z,1.53
2019-05-02T21:24:34.540Z,4.33
2019-05-02T21:27:21.808Z,2.80
2019-05-02T21:30:08.039Z,2.43
2019-05-02T21:32:54.220Z,3.37
2019-05-02T21:35:40.143Z,2.37
2019-05-02T21:38:25.991Z,5.10
2019-05-02T21:41:12.876Z,4.10
2019-05-02T21:43:58.820Z,3.73
2019-05-02T21:46:44.959Z,3.23
2019-05-02T21:50:05.501Z,3.93
2019-05-02T21:53:17.237Z,5.37
2019-05-02T21:56:21.916Z,2.30
2019-05-02T21:59:08.996Z,3.13
2019-05-02T22:01:56.627Z,3.63
2019-05-02T22:04:42.613Z,3.50
2019-05-02T22:07:28.512Z,4.97
2019-05-02T22:10:14.543Z,8.17
2019-05-02T22:13:02.082Z,4.53
2019-05-02T22:15:48.303Z,4.73
2019-05-02T22:18:34.719Z,2.50
2019-05-02T22:21:22.731Z,5.50
2019-05-02T22:24:11.763Z,2.47
2019-05-02T22:26:56.663Z,3.23
2019-05-02T22:29:43.049Z,2.87
2019-05-02T22:32:29.378Z,3.00
2019-05-02T22:35:15.801Z,3.70
2019-05-02T22:38:11.727Z,6.03
2019-05-02T22:40:58.743Z,3.10
2019-05-02T22:43:45.048Z,2.77
2019-05-02T22:46:43.193Z,3.70
2019-05-02T22:49:31.682Z,6.43
2019-05-02T22:52:17.472Z,4.40
2019-05-02T22:55:04.019Z,2.73
2019-05-02T22:57:51.802Z,4.63
2019-05-02T23:00:38.294Z,4.50
2019-05-02T23:03:24.487Z,3.30
2019-05-02T23:06:12.429Z,3.73
2019-05-02T23:08:58.915Z,3.20
2019-05-02T23:11:44.979Z,3.20
2019-05-02T23:14:32.488Z,3.93
2019-05-02T23:17:18.489Z,1.87
2019-05-02T23:20:04.962Z,4.90
2019-05-02T23:22:52.359Z,3.20
2019-05-02T23:26:03.636Z,3.23
2019-05-02T23:28:51.745Z,4.20
2019-05-02T23:31:37.839Z,4.47
2019-05-02T23:34:23.708Z,3.23
2019-05-02T23:37:11.821Z,4.00
2019-05-02T23:39:57.712Z,2.73
2019-05-02T23:42:44.083Z,4.53
2019-05-02T23:45:31.611Z,3.10
2019-05-02T23:48:17.742Z,4.20
2019-05-02T23:51:04.003Z,3.67
2019-05-02T23:53:50.168Z,5.63
2019-05-02T23:56:35.948Z,4.03
2019-05-02T23:59:22.499Z,4.27
